Time;durP1;ratioP1;P1;durP2;ratioP2;P2;SDS_P1;SDS_P2;PMS_P1;PMS_P2;Temp;Humidity;BMP_temperature;BMP_pressure;BME280_temperature;BME280_humidity;BME280_pressure;Samples;Min_cycle;Max_cycle;Signal;HPM_P1;HPM_P2
2021/10/08 00:01:10;;;;;;;5.65;4.20;;;12.60;99.90;;;;;;5053519;28;20210;-75
2021/10/08 00:03:37;;;;;;;4.40;3.63;;;12.60;99.90;;;;;;5052609;28;20662;-76
2021/10/08 00:06:05;;;;;;;5.32;4.60;;;12.60;99.90;;;;;;5054038;28;20310;-77
2021/10/08 00:08:34;;;;;;;5.80;3.75;;;12.70;99.90;;;;;;5055336;28;20290;-77
2021/10/08 00:11:00;;;;;;;6.57;4.40;;;12.70;99.90;;;;;;5054273;28;20218;-73
2021/10/08 00:13:27;;;;;;;6.15;4.18;;;12.80;99.90;;;;;;5054432;28;20573;-72
2021/10/08 00:15:55;;;;;;;6.05;4.55;;;12.70;99.90;;;;;;5054362;28;20233;-70
2021/10/08 00:18:21;;;;;;;6.20;4.50;;;12.70;99.90;;;;;;5053327;28;20214;-71
2021/10/08 00:20:48;;;;;;;5.55;3.80;;;12.60;99.90;;;;;;5054701;28;20254;-72
2021/10/08 00:23:15;;;;;;;6.60;4.43;;;12.40;99.90;;;;;;5054115;28;20618;-71
2021/10/08 00:25:43;;;;;;;6.53;4.53;;;12.40;99.90;;;;;;5054363;28;20253;-71
2021/10/08 00:28:10;;;;;;;6.35;4.60;;;12.30;99.90;;;;;;5054314;28;20231;-71
2021/10/08 00:30:37;;;;;;;4.85;4.35;;;12.30;99.90;;;;;;5052998;28;20225;-71
2021/10/08 00:33:04;;;;;;;4.78;3.78;;;12.30;99.90;;;;;;5053220;28;20207;-70
2021/10/08 00:35:31;;;;;;;6.25;4.35;;;12.20;99.90;;;;;;5054578;28;20245;-71
2021/10/08 00:37:58;;;;;;;4.97;4.30;;;12.20;99.90;;;;;;5054682;28;20329;-70
2021/10/08 00:40:25;;;;;;;7.00;4.47;;;12.20;99.90;;;;;;5053797;28;20299;-71
2021/10/08 00:42:53;;;;;;;5.82;4.72;;;12.20;99.90;;;;;;5053037;28;20207;-70
2021/10/08 00:45:20;;;;;;;4.45;4.03;;;12.20;99.90;;;;;;5052713;28;20272;-71
2021/10/08 00:47:56;;;;;;;6.20;4.20;;;12.10;99.90;;;;;;5052724;28;20753;-73
2021/10/08 00:50:23;;;;;;;6.13;4.25;;;12.10;99.90;;;;;;5053000;28;20669;-73
2021/10/08 00:52:49;;;;;;;5.25;4.05;;;12.10;99.90;;;;;;5053350;28;20213;-73
2021/10/08 00:55:16;;;;;;;5.47;4.38;;;12.10;99.90;;;;;;5052822;28;20222;-73
2021/10/08 00:57:46;;;;;;;5.80;4.50;;;12.10;99.90;;;;;;5052994;28;20590;-71
2021/10/08 01:00:15;;;;;;;4.05;3.70;;;12.00;99.90;;;;;;5057321;28;20681;-72
2021/10/08 01:02:42;;;;;;;9.77;5.43;;;12.00;99.90;;;;;;5056689;28;20737;-72
2021/10/08 01:05:09;;;;;;;5.20;4.18;;;11.90;99.90;;;;;;5054998;28;20207;-72
2021/10/08 01:07:36;;;;;;;6.00;4.63;;;11.90;99.90;;;;;;5054341;28;20223;-72
2021/10/08 01:10:04;;;;;;;6.85;4.70;;;11.80;99.90;;;;;;5054168;28;20299;-72
2021/10/08 01:12:32;;;;;;;5.60;4.82;;;11.80;99.90;;;;;;5053780;28;20307;-72
2021/10/08 01:14:59;;;;;;;5.45;4.00;;;11.80;99.90;;;;;;5054399;28;20223;-72
2021/10/08 01:17:27;;;;;;;7.40;4.90;;;11.80;99.90;;;;;;5053951;28;20724;-72
2021/10/08 01:19:54;;;;;;;4.75;4.25;;;11.80;99.90;;;;;;5054799;28;20204;-72
2021/10/08 01:22:22;;;;;;;6.60;4.20;;;11.80;99.90;;;;;;5055313;28;20576;-72
2021/10/08 01:24:49;;;;;;;5.47;4.30;;;11.80;99.90;;;;;;5055024;28;20211;-72
2021/10/08 01:27:16;;;;;;;5.20;4.35;;;11.70;99.90;;;;;;5054105;28;20716;-73
2021/10/08 01:29:51;;;;;;;6.43;4.60;;;11.60;99.90;;;;;;5054142;28;20687;-72
2021/10/08 01:32:18;;;;;;;6.72;5.07;;;11.50;99.90;;;;;;5053537;28;20205;-71
2021/10/08 01:34:45;;;;;;;6.20;4.53;;;11.50;99.90;;;;;;5053780;28;20210;-72
2021/10/08 01:37:11;;;;;;;6.80;4.82;;;11.40;99.90;;;;;;5053193;28;20290;-72
2021/10/08 01:39:40;;;;;;;7.88;4.60;;;11.40;99.90;;;;;;5054161;28;20200;-72
2021/10/08 01:42:07;;;;;;;5.65;4.88;;;11.40;99.90;;;;;;5057445;28;20268;-72
2021/10/08 01:44:34;;;;;;;6.25;4.70;;;11.40;99.90;;;;;;5058301;28;20210;-72
2021/10/08 01:47:00;;;;;;;6.68;5.00;;;11.40;99.90;;;;;;5057917;28;20566;-72
2021/10/08 01:49:27;;;;;;;6.78;5.03;;;11.40;99.90;;;;;;5057596;28;20203;-72
2021/10/08 01:51:54;;;;;;;7.35;5.15;;;11.40;99.90;;;;;;5056990;28;20204;-72
2021/10/08 01:54:21;;;;;;;6.15;4.80;;;11.30;99.90;;;;;;5057309;28;20314;-72
2021/10/08 01:56:49;;;;;;;6.10;4.45;;;11.30;99.90;;;;;;5056851;28;20231;-72
2021/10/08 01:59:16;;;;;;;5.90;4.78;;;11.40;99.90;;;;;;5057513;28;20200;-72
2021/10/08 02:01:43;;;;;;;6.85;5.43;;;11.40;99.90;;;;;;5056985;28;20199;-72
2021/10/08 02:04:11;;;;;;;6.82;4.95;;;11.40;99.90;;;;;;5057263;28;20680;-72
2021/10/08 02:06:38;;;;;;;5.25;4.72;;;11.40;99.90;;;;;;5056951;28;20215;-72
2021/10/08 02:09:06;;;;;;;6.82;4.88;;;11.30;99.90;;;;;;5057019;28;20562;-72
2021/10/08 02:11:33;;;;;;;6.72;5.13;;;11.30;99.90;;;;;;5057004;28;20208;-72
2021/10/08 02:14:01;;;;;;;6.88;5.85;;;11.20;99.90;;;;;;5057711;28;20203;-72
2021/10/08 02:16:28;;;;;;;6.05;5.15;;;11.20;99.90;;;;;;5056706;28;20314;-72
2021/10/08 02:18:56;;;;;;;6.72;6.00;;;11.20;99.90;;;;;;5056537;28;20199;-73
2021/10/08 02:21:24;;;;;;;6.30;4.95;;;11.20;99.90;;;;;;5056642;28;20210;-72
2021/10/08 02:23:52;;;;;;;7.40;5.20;;;11.20;99.90;;;;;;5056767;28;20206;-72
2021/10/08 02:26:20;;;;;;;7.32;5.28;;;11.20;99.90;;;;;;5055995;28;20233;-72
2021/10/08 02:28:47;;;;;;;7.60;5.60;;;11.10;99.90;;;;;;5055959;28;20693;-72
2021/10/08 02:31:16;;;;;;;7.30;4.65;;;11.00;99.90;;;;;;5055832;28;20560;-72
2021/10/08 02:33:43;;;;;;;6.80;5.65;;;11.00;99.90;;;;;;5056032;28;20210;-72
2021/10/08 02:36:10;;;;;;;7.22;6.07;;;11.00;99.90;;;;;;5055707;28;20231;-72
2021/10/08 02:38:38;;;;;;;6.85;5.75;;;11.00;99.90;;;;;;5055894;28;20543;-72
2021/10/08 02:41:05;;;;;;;6.60;5.25;;;11.00;99.90;;;;;;5055627;28;20199;-72
2021/10/08 02:43:32;;;;;;;8.35;5.95;;;10.90;99.90;;;;;;5055628;28;20208;-72
2021/10/08 02:45:59;;;;;;;7.72;5.65;;;10.90;99.90;;;;;;5055489;28;20195;-72
2021/10/08 02:48:28;;;;;;;8.50;6.15;;;10.90;99.90;;;;;;5055362;28;20210;-73
2021/10/08 02:50:55;;;;;;;6.45;4.80;;;10.90;99.90;;;;;;5055222;28;20211;-72
2021/10/08 02:53:22;;;;;;;7.35;6.15;;;10.90;99.90;;;;;;5055450;28;20222;-72
2021/10/08 02:55:49;;;;;;;6.03;5.32;;;10.90;99.90;;;;;;5055463;28;20584;-72
2021/10/08 02:58:15;;;;;;;8.35;5.70;;;10.80;99.90;;;;;;5055554;28;20294;-72
2021/10/08 03:00:42;;;;;;;8.77;6.65;;;10.90;99.90;;;;;;5055298;28;20320;-72
2021/10/08 03:03:09;;;;;;;9.02;5.85;;;10.90;99.90;;;;;;5055423;28;20199;-72
2021/10/08 03:05:37;;;;;;;7.70;6.00;;;10.90;99.90;;;;;;5055013;28;20666;-72
2021/10/08 03:08:05;;;;;;;8.98;6.22;;;10.90;99.90;;;;;;5054918;28;20310;-72
2021/10/08 03:10:31;;;;;;;7.53;5.57;;;10.90;99.90;;;;;;5055086;28;20207;-72
2021/10/08 03:12:58;;;;;;;7.80;5.38;;;10.80;99.90;;;;;;5055327;28;20203;-71
2021/10/08 03:15:25;;;;;;;8.98;5.47;;;10.90;99.90;;;;;;5055019;28;20713;-72
2021/10/08 03:17:52;;;;;;;7.50;5.80;;;10.80;99.90;;;;;;5054821;28;20230;-72
2021/10/08 03:20:19;;;;;;;6.13;5.43;;;10.70;99.90;;;;;;5054769;28;20242;-72
2021/10/08 03:22:47;;;;;;;8.45;6.50;;;10.70;99.90;;;;;;5055051;28;20223;-72
2021/10/08 03:25:14;;;;;;;7.93;6.10;;;10.70;99.90;;;;;;5055274;28;20222;-72
2021/10/08 03:27:42;;;;;;;8.77;5.90;;;10.70;99.90;;;;;;5054613;28;20222;-72
2021/10/08 03:30:14;;;;;;;7.70;6.05;;;10.70;99.90;;;;;;5054822;28;20572;-72
2021/10/08 03:32:41;;;;;;;7.50;5.45;;;10.70;99.90;;;;;;5054528;28;20290;-72
2021/10/08 03:35:10;;;;;;;8.27;5.53;;;10.60;99.90;;;;;;5054788;28;20562;-72
2021/10/08 03:37:41;;;;;;;7.32;5.68;;;10.60;99.90;;;;;;5054543;28;20314;-72
2021/10/08 03:40:12;;;;;;;7.45;6.40;;;10.70;99.90;;;;;;5054642;28;20724;-72
2021/10/08 03:42:39;;;;;;;8.90;6.18;;;10.70;99.90;;;;;;5054263;28;20261;-72
2021/10/08 03:45:12;;;;;;;9.32;5.85;;;10.70;99.90;;;;;;5054336;28;20290;-72
2021/10/08 03:47:53;;;;;;;10.60;7.00;;;10.70;99.90;;;;;;5054606;28;20215;-72
2021/10/08 03:50:20;;;;;;;8.38;6.25;;;10.70;99.90;;;;;;5054443;28;20661;-72
2021/10/08 03:52:46;;;;;;;8.05;5.85;;;10.70;99.90;;;;;;5054064;28;20203;-72
2021/10/08 03:55:15;;;;;;;10.30;6.82;;;10.60;99.90;;;;;;5054599;28;20210;-72
2021/10/08 03:57:42;;;;;;;8.88;6.28;;;10.70;99.90;;;;;;5055140;28;20310;-72
2021/10/08 04:00:10;;;;;;;10.05;6.80;;;10.60;99.90;;;;;;5054787;28;20204;-72
2021/10/08 04:02:37;;;;;;;8.73;5.80;;;10.60;99.90;;;;;;5053965;28;20208;-71
2021/10/08 04:05:05;;;;;;;8.25;6.35;;;10.60;99.90;;;;;;5053730;28;20294;-72
2021/10/08 04:07:32;;;;;;;9.60;6.68;;;10.60;99.90;;;;;;5053750;28;20224;-72
2021/10/08 04:09:59;;;;;;;7.38;6.18;;;10.60;99.90;;;;;;5054094;28;20203;-72
2021/10/08 04:12:27;;;;;;;9.20;6.65;;;10.50;99.90;;;;;;5053886;28;20260;-71
2021/10/08 04:14:54;;;;;;;10.10;6.32;;;10.50;99.90;;;;;;5053879;28;20281;-72
2021/10/08 04:17:21;;;;;;;9.88;6.60;;;10.40;99.90;;;;;;5053705;28;20338;-72
2021/10/08 04:19:48;;;;;;;8.90;6.68;;;10.40;99.90;;;;;;5053870;28;20298;-72
2021/10/08 04:22:14;;;;;;;9.55;6.35;;;10.40;99.90;;;;;;5053758;28;20294;-72
2021/10/08 04:24:41;;;;;;;9.60;7.00;;;10.40;99.90;;;;;;5053494;28;20207;-72
2021/10/08 04:27:08;;;;;;;8.73;6.93;;;10.40;99.90;;;;;;5053827;28;20311;-72
2021/10/08 04:29:36;;;;;;;7.18;6.22;;;10.40;99.90;;;;;;5053790;28;20239;-72
2021/10/08 04:32:03;;;;;;;11.68;6.65;;;10.40;99.90;;;;;;5053546;28;20294;-72
2021/10/08 04:34:30;;;;;;;8.38;5.88;;;10.30;99.90;;;;;;5053941;28;20214;-72
2021/10/08 04:36:57;;;;;;;10.88;6.72;;;10.30;99.90;;;;;;5053375;28;20732;-72
2021/10/08 04:39:24;;;;;;;7.90;5.95;;;10.20;99.90;;;;;;5054041;28;20295;-72
2021/10/08 04:41:51;;;;;;;8.18;6.13;;;10.20;99.90;;;;;;5053768;28;20302;-72
2021/10/08 04:44:18;;;;;;;11.90;6.80;;;10.20;99.90;;;;;;5054519;28;20199;-72
2021/10/08 04:46:46;;;;;;;9.27;7.00;;;10.20;99.90;;;;;;5054021;28;20229;-72
2021/10/08 04:49:13;;;;;;;8.80;5.97;;;10.20;99.90;;;;;;5054457;28;20290;-72
2021/10/08 04:51:40;;;;;;;7.03;6.00;;;10.20;99.90;;;;;;5054301;28;20290;-72
2021/10/08 04:54:07;;;;;;;8.80;6.70;;;10.20;99.90;;;;;;5054114;28;20576;-72
2021/10/08 04:56:33;;;;;;;10.85;6.53;;;10.10;99.90;;;;;;5054932;28;20227;-72
2021/10/08 04:59:00;;;;;;;8.70;6.53;;;10.10;99.90;;;;;;5054826;28;20566;-72
2021/10/08 05:01:28;;;;;;;11.13;6.97;;;10.10;99.90;;;;;;5054148;28;20210;-72
2021/10/08 05:03:56;;;;;;;9.45;7.10;;;10.10;99.90;;;;;;5054273;28;20203;-72
2021/10/08 05:06:23;;;;;;;9.05;5.95;;;10.10;99.90;;;;;;5054134;28;20219;-72
2021/10/08 05:08:50;;;;;;;9.13;6.10;;;10.10;99.90;;;;;;5054163;28;20205;-72
2021/10/08 05:11:17;;;;;;;10.20;6.80;;;10.10;99.90;;;;;;5053938;28;20609;-72
2021/10/08 05:13:44;;;;;;;8.77;6.85;;;10.20;99.90;;;;;;5053903;28;20685;-72
2021/10/08 05:16:11;;;;;;;8.35;6.22;;;10.20;99.90;;;;;;5055568;28;20222;-72
2021/10/08 05:18:38;;;;;;;8.30;6.30;;;10.10;99.90;;;;;;5057541;28;20203;-72
2021/10/08 05:21:06;;;;;;;8.73;6.03;;;10.10;99.90;;;;;;5057438;28;20203;-72
2021/10/08 05:23:34;;;;;;;10.48;6.80;;;10.00;99.90;;;;;;5058023;28;20670;-72
2021/10/08 05:26:02;;;;;;;8.30;6.40;;;10.00;99.90;;;;;;5058007;28;20600;-72
2021/10/08 05:28:28;;;;;;;8.82;6.70;;;10.00;99.90;;;;;;5058113;28;20199;-72
2021/10/08 05:30:55;;;;;;;9.20;6.85;;;10.00;99.90;;;;;;5057635;28;20294;-72
2021/10/08 05:33:22;;;;;;;10.45;7.32;;;10.00;99.90;;;;;;5057829;28;20290;-72
2021/10/08 05:35:49;;;;;;;12.43;7.45;;;10.00;99.90;;;;;;5057536;28;20290;-72
2021/10/08 05:38:18;;;;;;;10.93;6.65;;;10.00;99.90;;;;;;5057500;28;20318;-72
2021/10/08 05:40:47;;;;;;;8.85;6.13;;;10.10;99.90;;;;;;5057204;28;20653;-72
2021/10/08 05:43:14;;;;;;;9.45;6.65;;;10.10;99.90;;;;;;5057236;28;20216;-71
2021/10/08 05:45:41;;;;;;;9.70;6.25;;;10.10;99.90;;;;;;5058290;28;20204;-72
2021/10/08 05:48:08;;;;;;;10.43;7.93;;;10.10;99.90;;;;;;5058668;28;20286;-72
2021/10/08 05:50:35;;;;;;;9.10;6.78;;;10.10;99.90;;;;;;5057350;28;20203;-72
2021/10/08 05:53:02;;;;;;;9.40;6.25;;;10.10;99.90;;;;;;5057036;28;20294;-72
2021/10/08 05:55:30;;;;;;;10.05;7.43;;;10.10;99.90;;;;;;5057746;28;20270;-72
2021/10/08 05:57:57;;;;;;;8.10;6.78;;;10.10;99.90;;;;;;5056427;28;20748;-72
2021/10/08 06:00:24;;;;;;;10.43;7.07;;;10.10;99.90;;;;;;5056511;28;20301;-72
2021/10/08 06:02:51;;;;;;;8.85;6.60;;;10.10;99.90;;;;;;5056395;28;20286;-72
2021/10/08 06:05:18;;;;;;;9.32;6.90;;;10.10;99.90;;;;;;5056858;28;20199;-72
2021/10/08 06:07:45;;;;;;;11.10;7.18;;;10.10;99.90;;;;;;5056517;28;20742;-72
2021/10/08 06:10:12;;;;;;;10.95;7.90;;;10.10;99.90;;;;;;5056396;28;20302;-72
2021/10/08 06:12:41;;;;;;;11.13;7.10;;;10.10;99.90;;;;;;5056619;28;20314;-72
2021/10/08 06:15:10;;;;;;;9.50;6.75;;;10.10;99.90;;;;;;5056271;28;20290;-72
2021/10/08 06:17:37;;;;;;;10.65;7.53;;;10.00;99.90;;;;;;5056164;28;20233;-72
2021/10/08 06:20:04;;;;;;;12.25;7.35;;;10.10;99.90;;;;;;5056115;28;20199;-72
2021/10/08 06:22:32;;;;;;;9.18;6.35;;;10.10;99.90;;;;;;5055801;28;20362;-72
2021/10/08 06:24:58;;;;;;;7.78;6.47;;;10.20;99.90;;;;;;5055850;28;20269;-72
2021/10/08 06:27:25;;;;;;;10.45;6.97;;;10.20;99.90;;;;;;5055947;28;20223;-72
2021/10/08 06:29:53;;;;;;;9.70;6.85;;;10.20;99.90;;;;;;5055771;28;20295;-72
2021/10/08 06:32:20;;;;;;;10.23;7.15;;;10.20;99.90;;;;;;5055560;28;20672;-71
2021/10/08 06:34:47;;;;;;;12.38;8.20;;;10.30;99.90;;;;;;5055940;28;20298;-72
2021/10/08 06:37:14;;;;;;;14.07;8.35;;;10.30;99.90;;;;;;5055701;28;20318;-72
2021/10/08 06:39:41;;;;;;;12.32;8.20;;;10.30;99.90;;;;;;5055501;28;20214;-72
2021/10/08 06:42:07;;;;;;;10.88;6.90;;;10.30;99.90;;;;;;5055709;28;20225;-71
2021/10/08 06:44:34;;;;;;;10.63;7.70;;;10.30;99.90;;;;;;5055753;28;20208;-72
2021/10/08 06:47:03;;;;;;;11.27;7.55;;;10.40;99.90;;;;;;5055846;28;20219;-72
2021/10/08 06:49:30;;;;;;;11.50;7.78;;;10.40;99.90;;;;;;5055733;28;20199;-72
2021/10/08 06:51:57;;;;;;;14.65;8.38;;;10.50;99.90;;;;;;5055477;28;20232;-71
2021/10/08 06:54:24;;;;;;;10.77;7.85;;;10.50;99.90;;;;;;5055627;28;20204;-72
2021/10/08 06:56:51;;;;;;;11.18;7.55;;;10.50;99.90;;;;;;5055123;28;20677;-72
2021/10/08 06:59:17;;;;;;;10.25;8.07;;;10.60;99.90;;;;;;5055313;28;20207;-72
2021/10/08 07:01:44;;;;;;;10.65;7.65;;;10.60;99.90;;;;;;5055025;28;20207;-71
2021/10/08 07:04:12;;;;;;;9.88;7.05;;;10.70;99.90;;;;;;5055906;28;20683;-73
2021/10/08 07:06:39;;;;;;;12.30;8.10;;;10.70;99.90;;;;;;5055705;28;20251;-72
2021/10/08 07:09:06;;;;;;;13.45;8.43;;;10.80;99.90;;;;;;5055903;28;20619;-73
2021/10/08 07:11:33;;;;;;;8.55;6.57;;;10.70;99.90;;;;;;5055413;28;20298;-71
2021/10/08 07:13:59;;;;;;;11.50;8.27;;;10.80;99.90;;;;;;5055512;28;20200;-72
2021/10/08 07:16:26;;;;;;;10.18;7.38;;;10.80;99.90;;;;;;5055791;28;20254;-72
2021/10/08 07:18:55;;;;;;;10.02;7.68;;;10.90;99.90;;;;;;5056022;28;20314;-72
2021/10/08 07:21:24;;;;;;;14.52;9.07;;;10.80;99.90;;;;;;5055704;28;20277;-72
2021/10/08 07:23:52;;;;;;;12.63;8.57;;;11.00;99.90;;;;;;5055673;28;20235;-72
2021/10/08 07:26:21;;;;;;;10.60;7.60;;;11.00;99.90;;;;;;5054911;28;20604;-72
2021/10/08 07:28:48;;;;;;;13.35;8.13;;;11.10;99.90;;;;;;5055879;28;20199;-72
2021/10/08 07:31:14;;;;;;;12.30;8.30;;;11.10;99.90;;;;;;5056006;28;20210;-71
2021/10/08 07:33:42;;;;;;;12.50;8.27;;;11.10;99.90;;;;;;5056304;28;20310;-72
2021/10/08 07:36:10;;;;;;;14.68;10.00;;;11.20;99.90;;;;;;5055642;28;20242;-72
2021/10/08 07:38:39;;;;;;;12.63;9.20;;;11.10;99.90;;;;;;5054807;28;20234;-72
2021/10/08 07:41:06;;;;;;;13.02;9.70;;;11.20;99.90;;;;;;5055273;28;20237;-72
2021/10/08 07:43:33;;;;;;;12.00;8.20;;;11.00;99.90;;;;;;5055323;28;20290;-72
2021/10/08 07:46:00;;;;;;;14.90;10.00;;;11.10;99.90;;;;;;5054585;28;20565;-72
2021/10/08 07:48:27;;;;;;;13.13;9.18;;;11.00;99.90;;;;;;5054459;28;20199;-72
2021/10/08 07:50:54;;;;;;;13.15;9.40;;;11.10;99.90;;;;;;5054682;28;20203;-73
2021/10/08 07:53:20;;;;;;;13.45;9.02;;;11.10;99.90;;;;;;5055434;28;20207;-72
2021/10/08 07:55:49;;;;;;;15.38;9.65;;;11.20;99.90;;;;;;5054702;28;20286;-72
2021/10/08 07:58:16;;;;;;;15.50;9.70;;;11.10;99.90;;;;;;5054986;28;20225;-72
2021/10/08 08:00:43;;;;;;;12.85;8.88;;;11.20;99.90;;;;;;5054819;28;20199;-72
2021/10/08 08:03:09;;;;;;;15.63;9.70;;;11.30;99.90;;;;;;5055478;28;20299;-72
2021/10/08 08:05:36;;;;;;;12.23;9.25;;;11.40;99.90;;;;;;5055871;28;20209;-72
2021/10/08 08:08:03;;;;;;;12.90;9.23;;;11.40;99.90;;;;;;5055351;28;20310;-72
2021/10/08 08:10:30;;;;;;;13.43;9.73;;;11.30;99.90;;;;;;5054585;28;20214;-72
2021/10/08 08:12:58;;;;;;;16.50;10.10;;;11.30;99.90;;;;;;5055120;28;20207;-72
2021/10/08 08:15:25;;;;;;;13.60;9.00;;;11.30;99.90;;;;;;5055988;28;20235;-72
2021/10/08 08:17:52;;;;;;;11.65;8.55;;;11.40;99.90;;;;;;5055459;28;20317;-72
2021/10/08 08:20:19;;;;;;;14.60;9.00;;;11.40;99.90;;;;;;5054606;28;20210;-72
2021/10/08 08:22:46;;;;;;;15.23;9.77;;;11.40;99.90;;;;;;5053945;28;20209;-71
2021/10/08 08:25:13;;;;;;;14.35;9.20;;;11.30;99.90;;;;;;5053993;28;20302;-72
2021/10/08 08:27:39;;;;;;;15.25;10.00;;;11.30;99.90;;;;;;5055385;28;20705;-72
2021/10/08 08:30:09;;;;;;;15.13;10.00;;;11.40;99.90;;;;;;5055357;28;20210;-72
2021/10/08 08:32:36;;;;;;;17.45;9.40;;;11.50;99.90;;;;;;5055324;28;20295;-71
2021/10/08 08:35:05;;;;;;;10.57;7.93;;;11.60;99.90;;;;;;5054986;28;20207;-72
2021/10/08 08:37:32;;;;;;;10.75;8.27;;;11.60;99.90;;;;;;5055384;28;20231;-72
2021/10/08 08:40:05;;;;;;;13.85;9.90;;;11.60;99.90;;;;;;5054359;28;20286;-72
2021/10/08 08:42:32;;;;;;;14.45;8.45;;;11.60;99.90;;;;;;5054057;28;20245;-71
2021/10/08 08:44:59;;;;;;;12.27;9.57;;;11.60;99.90;;;;;;5054667;28;20204;-73
2021/10/08 08:47:27;;;;;;;12.70;9.45;;;11.60;99.90;;;;;;5053821;28;20219;-72
2021/10/08 08:49:54;;;;;;;12.35;8.95;;;11.60;99.90;;;;;;5056406;28;20229;-72
2021/10/08 08:52:22;;;;;;;12.95;8.73;;;11.70;99.90;;;;;;5059612;28;20203;-72
2021/10/08 08:54:51;;;;;;;15.57;8.93;;;11.90;99.90;;;;;;5059754;28;20561;-72
2021/10/08 08:57:20;;;;;;;9.65;7.50;;;12.00;99.90;;;;;;5061393;28;20655;-72
2021/10/08 08:59:57;;;;;;;12.05;9.18;;;12.30;99.90;;;;;;5061668;28;20290;-73
2021/10/08 09:02:27;;;;;;;12.25;8.75;;;12.60;99.90;;;;;;5058160;28;20602;-73
2021/10/08 09:04:54;;;;;;;10.55;8.35;;;12.80;99.90;;;;;;5058245;28;20211;-72
2021/10/08 09:07:22;;;;;;;11.77;8.82;;;13.00;99.90;;;;;;5056846;28;20254;-76
2021/10/08 09:09:49;;;;;;;12.32;8.77;;;13.20;99.90;;;;;;5055924;28;20265;-75
2021/10/08 09:12:16;;;;;;;11.65;8.45;;;13.30;99.90;;;;;;5055769;28;20207;-73
2021/10/08 09:14:43;;;;;;;13.60;8.65;;;13.30;99.90;;;;;;5056328;28;20210;-75
2021/10/08 09:17:16;;;;;;;14.25;9.00;;;13.40;99.90;;;;;;5055787;28;20662;-74
2021/10/08 09:19:53;;;;;;;12.00;8.75;;;13.50;99.90;;;;;;5055886;28;20200;-74
2021/10/08 09:22:23;;;;;;;11.27;7.97;;;13.60;99.90;;;;;;5055649;28;20203;-73
2021/10/08 09:24:50;;;;;;;11.60;8.50;;;13.70;99.90;;;;;;5055899;28;20253;-74
2021/10/08 09:27:20;;;;;;;11.65;8.65;;;13.80;99.90;;;;;;5055416;28;20239;-73
2021/10/08 09:29:51;;;;;;;12.15;8.63;;;13.80;99.90;;;;;;5056360;28;20199;-71
2021/10/08 09:32:19;;;;;;;9.88;7.80;;;13.60;99.90;;;;;;5056793;28;20211;-75
2021/10/08 09:34:47;;;;;;;10.25;8.15;;;13.50;99.90;;;;;;5055598;28;20687;-75
2021/10/08 09:37:17;;;;;;;12.30;8.63;;;13.40;99.90;;;;;;5055777;28;20224;-76
2021/10/08 09:39:50;;;;;;;14.20;9.48;;;13.30;99.90;;;;;;5055600;28;20200;-76
2021/10/08 09:42:19;;;;;;;11.48;7.82;;;13.20;99.90;;;;;;5055268;28;20203;-75
2021/10/08 09:44:48;;;;;;;10.35;7.95;;;13.20;99.90;;;;;;5055624;28;20273;-75
2021/10/08 09:47:17;;;;;;;12.35;8.75;;;13.40;99.90;;;;;;5054938;28;20678;-73
2021/10/08 09:49:46;;;;;;;12.73;9.20;;;13.50;99.90;;;;;;5057335;28;20290;-71
2021/10/08 09:52:25;;;;;;;10.13;7.85;;;13.60;99.90;;;;;;5057264;28;20195;-70
2021/10/08 09:54:54;;;;;;;13.68;8.95;;;13.50;99.90;;;;;;5057671;28;20230;-70
2021/10/08 09:57:22;;;;;;;15.82;8.98;;;13.40;99.90;;;;;;5056626;28;20311;-70
2021/10/08 09:59:50;;;;;;;11.02;8.40;;;13.30;99.90;;;;;;5057280;28;20218;-71
2021/10/08 10:02:17;;;;;;;10.20;7.40;;;13.30;99.90;;;;;;5055703;28;20203;-70
2021/10/08 10:04:52;;;;;;;12.45;7.72;;;13.40;99.90;;;;;;5057043;28;20716;-70
2021/10/08 10:07:20;;;;;;;10.60;7.45;;;13.60;99.90;;;;;;5056663;28;20258;-70
2021/10/08 10:09:49;;;;;;;11.38;8.48;;;13.90;99.90;;;;;;5056561;28;20195;-72
2021/10/08 10:12:18;;;;;;;10.77;8.13;;;14.10;99.90;;;;;;5056491;28;20622;-71
2021/10/08 10:14:46;;;;;;;11.65;7.68;;;14.20;99.90;;;;;;5057019;28;20779;-71
2021/10/08 10:17:15;;;;;;;12.50;8.40;;;14.30;99.90;;;;;;5057157;28;20565;-72
2021/10/08 10:19:45;;;;;;;10.45;7.68;;;14.40;99.90;;;;;;5056676;28;20228;-71
2021/10/08 10:22:15;;;;;;;11.02;7.90;;;14.40;99.90;;;;;;5056328;28;20434;-71
2021/10/08 10:24:43;;;;;;;11.05;7.60;;;14.40;99.90;;;;;;5056722;28;20223;-71
2021/10/08 10:27:14;;;;;;;10.57;7.65;;;14.30;99.90;;;;;;5056729;28;20234;-72
2021/10/08 10:29:42;;;;;;;11.32;7.70;;;14.20;99.90;;;;;;5056917;28;20201;-71
2021/10/08 10:32:10;;;;;;;14.52;8.32;;;14.20;99.90;;;;;;5056383;28;20243;-71
2021/10/08 10:34:39;;;;;;;11.30;7.68;;;14.10;99.90;;;;;;5056626;28;20243;-72
2021/10/08 10:37:07;;;;;;;9.32;7.60;;;14.10;99.90;;;;;;5056503;28;20235;-71
2021/10/08 10:39:34;;;;;;;10.90;7.55;;;14.20;99.90;;;;;;5056782;28;20235;-72
2021/10/08 10:42:16;;;;;;;9.32;6.65;;;14.30;99.90;;;;;;5056264;28;20548;-71
2021/10/08 10:45:08;;;;;;;8.90;7.28;;;14.40;99.90;;;;;;5056943;28;20209;-72
2021/10/08 10:47:37;;;;;;;10.68;7.07;;;14.50;99.90;;;;;;5056208;28;20224;-72
2021/10/08 10:50:18;;;;;;;10.82;7.22;;;14.60;99.90;;;;;;5056567;28;20228;-72
2021/10/08 10:52:51;;;;;;;10.10;7.28;;;14.60;99.90;;;;;;5056489;28;20244;-72
2021/10/08 10:55:20;;;;;;;11.43;7.57;;;14.70;99.90;;;;;;5056402;28;20241;-72
2021/10/08 10:58:10;;;;;;;8.57;6.35;;;14.70;99.90;;;;;;5056132;28;20306;-72
2021/10/08 11:00:46;;;;;;;8.90;6.40;;;14.70;99.90;;;;;;5056627;28;20666;-71
2021/10/08 11:03:15;;;;;;;8.57;6.70;;;14.70;99.90;;;;;;5055603;28;20204;-70
2021/10/08 11:06:10;;;;;;;8.68;7.15;;;14.80;99.90;;;;;;5055764;28;20206;-71
2021/10/08 11:08:58;;;;;;;8.15;6.85;;;14.80;99.90;;;;;;5055806;28;20296;-71
2021/10/08 11:11:25;;;;;;;11.13;6.95;;;14.80;99.90;;;;;;5056989;28;20207;-73
2021/10/08 11:14:13;;;;;;;9.55;6.85;;;14.90;99.90;;;;;;5057158;28;20295;-73
2021/10/08 11:16:40;;;;;;;8.48;6.78;;;15.00;99.90;;;;;;5058228;28;20260;-74
2021/10/08 11:19:07;;;;;;;8.35;6.28;;;15.10;99.90;;;;;;5057947;28;20268;-74
2021/10/08 11:21:50;;;;;;;9.40;6.53;;;15.10;99.90;;;;;;5057512;28;20304;-73
2021/10/08 11:24:20;;;;;;;9.25;6.95;;;15.10;99.90;;;;;;5057702;28;20209;-74
2021/10/08 11:26:59;;;;;;;9.82;6.72;;;15.20;99.90;;;;;;5056814;28;20771;-73
2021/10/08 11:29:32;;;;;;;9.85;6.85;;;15.30;99.90;;;;;;5057090;28;20237;-73
2021/10/08 11:32:03;;;;;;;9.23;6.28;;;15.30;99.90;;;;;;5056607;28;20266;-73
2021/10/08 11:34:30;;;;;;;9.23;6.93;;;15.30;99.90;;;;;;5055900;28;20296;-73
2021/10/08 11:36:58;;;;;;;8.98;6.45;;;15.20;99.90;;;;;;5055959;28;20268;-72
2021/10/08 11:39:26;;;;;;;10.90;6.50;;;15.30;99.90;;;;;;5055667;28;20229;-73
2021/10/08 11:42:03;;;;;;;9.57;7.35;;;15.30;99.90;;;;;;5056353;28;20215;-73
2021/10/08 11:44:35;;;;;;;10.07;6.65;;;15.30;99.90;;;;;;5056106;28;20241;-73
2021/10/08 11:47:14;;;;;;;8.35;6.57;;;15.40;99.90;;;;;;5055661;28;20226;-74
2021/10/08 11:52:31;;;;;;;10.05;7.22;;;15.40;99.90;;;;;;5046483;28;20201;-73
2021/10/08 11:55:14;;;;;;;9.82;7.30;;;15.30;99.90;;;;;;5055681;28;20289;-73
2021/10/08 11:57:55;;;;;;;11.95;7.32;;;15.10;99.90;;;;;;5055886;28;20233;-74
2021/10/08 12:00:26;;;;;;;9.48;7.30;;;15.10;99.90;;;;;;5056457;28;20248;-75
2021/10/08 12:03:04;;;;;;;8.88;6.45;;;15.10;99.90;;;;;;5057121;28;20581;-74
2021/10/08 12:05:50;;;;;;;11.93;6.38;;;15.10;99.90;;;;;;5057011;28;20308;-74
2021/10/08 12:08:19;;;;;;;11.50;7.07;;;15.00;99.90;;;;;;5055887;28;20283;-74
2021/10/08 12:10:58;;;;;;;9.30;6.70;;;15.00;99.90;;;;;;5056343;28;20229;-74
2021/10/08 12:13:44;;;;;;;9.77;7.18;;;15.00;99.90;;;;;;5056958;28;20214;-74
2021/10/08 12:16:15;;;;;;;8.50;6.75;;;15.10;99.90;;;;;;5056351;28;20287;-74
2021/10/08 12:18:53;;;;;;;9.20;6.32;;;15.00;99.90;;;;;;5056153;28;20256;-73
2021/10/08 12:21:22;;;;;;;10.27;7.40;;;14.90;99.90;;;;;;5055494;28;20202;-74
2021/10/08 12:23:58;;;;;;;10.30;6.55;;;14.90;99.90;;;;;;5055731;28;20237;-74
2021/10/08 12:26:25;;;;;;;10.48;7.45;;;14.90;99.90;;;;;;5055654;28;20229;-74
2021/10/08 12:28:53;;;;;;;9.80;7.05;;;14.90;99.90;;;;;;5055902;28;20240;-74
2021/10/08 12:31:23;;;;;;;10.10;7.40;;;14.90;99.90;;;;;;5055353;28;20205;-73
2021/10/08 12:33:50;;;;;;;10.60;8.00;;;14.90;99.90;;;;;;5055922;28;20204;-74
2021/10/08 12:36:25;;;;;;;11.80;8.00;;;14.80;99.90;;;;;;5055645;28;20233;-74
2021/10/08 12:38:54;;;;;;;10.98;8.32;;;14.90;99.90;;;;;;5055626;28;20229;-73
2021/10/08 12:41:23;;;;;;;11.30;7.20;;;14.90;99.90;;;;;;5055741;28;20280;-74
2021/10/08 12:43:50;;;;;;;10.98;6.97;;;14.90;99.90;;;;;;5056458;28;20204;-74
2021/10/08 12:46:21;;;;;;;13.95;7.18;;;15.00;99.90;;;;;;5056161;28;20225;-75
2021/10/08 12:48:59;;;;;;;11.48;7.57;;;15.00;99.90;;;;;;5055641;28;20710;-73
2021/10/08 12:51:26;;;;;;;10.68;8.13;;;15.00;99.90;;;;;;5054592;28;20318;-73
2021/10/08 12:54:11;;;;;;;7.90;7.00;;;15.10;99.90;;;;;;5054982;28;20223;-73